createdAt,value
2023-04-29T00:00:31.941Z,0.00
2023-04-29T00:01:30.928Z,0.00
2023-04-29T00:02:32.009Z,0.00
2023-04-29T00:03:32.127Z,0.00
2023-04-29T00:04:31.683Z,0.00
2023-04-29T00:05:30.961Z,0.00
2023-04-29T00:06:30.971Z,0.00
2023-04-29T00:07:30.895Z,0.00
2023-04-29T00:08:30.877Z,0.00
2023-04-29T00:09:30.871Z,0.00
2023-04-29T00:10:30.862Z,0.00
2023-04-29T00:11:30.834Z,0.00
2023-04-29T00:12:32.608Z,0.00
2023-04-29T00:13:30.823Z,0.00
2023-04-29T00:14:30.841Z,0.00
2023-04-29T00:15:30.815Z,0.00
2023-04-29T00:16:30.856Z,0.00
2023-04-29T00:17:30.830Z,0.00
2023-04-29T00:18:30.783Z,0.00
2023-04-29T00:19:30.782Z,0.00
2023-04-29T00:20:30.798Z,0.00
2023-04-29T00:22:31.462Z,0.00
2023-04-29T00:23:31.448Z,0.00
2023-04-29T00:24:31.460Z,0.00
2023-04-29T00:25:31.502Z,0.00
2023-04-29T00:26:31.438Z,0.00
2023-04-29T00:27:32.182Z,0.00
2023-04-29T00:28:31.405Z,0.00
2023-04-29T00:29:39.783Z,0.00
2023-04-29T00:30:31.395Z,0.00
2023-04-29T00:31:31.502Z,0.00
2023-04-29T00:32:31.442Z,0.00
2023-04-29T00:33:31.503Z,0.00
2023-04-29T00:34:31.377Z,0.00
2023-04-29T00:35:31.412Z,0.00
2023-04-29T00:36:31.342Z,0.00
2023-04-29T00:37:31.339Z,0.00
2023-04-29T00:38:31.332Z,0.00
2023-04-29T00:39:31.322Z,0.00
2023-04-29T00:40:31.320Z,0.00
2023-04-29T00:41:31.315Z,0.00
2023-04-29T00:42:31.334Z,0.00
2023-04-29T00:43:31.305Z,0.00
2023-04-29T00:44:31.280Z,0.00
2023-04-29T00:45:32.480Z,0.00
2023-04-29T00:46:31.360Z,0.00
2023-04-29T00:47:31.291Z,0.00
2023-04-29T00:48:31.264Z,0.00
2023-04-29T00:49:31.245Z,0.00
2023-04-29T00:50:31.248Z,0.00
2023-04-29T00:51:31.230Z,0.00
2023-04-29T00:52:31.244Z,0.00
2023-04-29T00:53:31.216Z,0.00
2023-04-29T00:54:31.219Z,0.00
2023-04-29T00:55:31.212Z,0.00
2023-04-29T00:56:31.185Z,0.00
2023-04-29T00:57:31.174Z,0.00
2023-04-29T00:58:31.162Z,0.00
2023-04-29T00:59:31.178Z,0.00
2023-04-29T01:00:31.184Z,0.00
2023-04-29T01:01:31.269Z,0.00
2023-04-29T01:02:31.205Z,0.00
2023-04-29T01:03:31.291Z,0.00
2023-04-29T01:04:31.178Z,0.00
2023-04-29T01:05:32.209Z,0.00
2023-04-29T01:06:32.193Z,0.00
2023-04-29T01:07:32.203Z,0.00
2023-04-29T01:08:32.205Z,0.00
2023-04-29T01:09:32.189Z,0.00
2023-04-29T01:10:32.775Z,0.00
2023-04-29T01:11:32.157Z,0.00
2023-04-29T01:12:32.160Z,0.00
2023-04-29T01:13:32.148Z,0.00
2023-04-29T01:14:32.832Z,0.00
2023-04-29T01:15:32.147Z,0.00
2023-04-29T01:16:32.187Z,0.00
2023-04-29T01:17:32.208Z,0.00
2023-04-29T01:18:32.101Z,0.00
2023-04-29T01:19:32.104Z,0.00
2023-04-29T01:20:32.097Z,0.00
2023-04-29T01:21:32.098Z,0.00
2023-04-29T01:22:32.089Z,0.00
2023-04-29T01:23:35.734Z,0.00
2023-04-29T01:24:32.059Z,0.00
2023-04-29T01:25:32.055Z,0.00
2023-04-29T01:26:32.033Z,0.00
2023-04-29T01:27:34.743Z,0.00
2023-04-29T01:28:32.025Z,0.00
2023-04-29T01:29:32.005Z,0.00
2023-04-29T01:30:32.041Z,0.00
2023-04-29T01:31:32.100Z,0.00
2023-04-29T01:32:34.477Z,0.00
2023-04-29T01:33:33.005Z,0.00
2023-04-29T01:34:31.975Z,0.00
2023-04-29T01:35:32.043Z,0.00
2023-04-29T01:36:32.729Z,0.00
2023-04-29T01:37:31.953Z,0.00
2023-04-29T01:38:35.701Z,0.00
2023-04-29T01:39:31.930Z,0.00
2023-04-29T01:40:32.849Z,0.00
2023-04-29T01:41:32.057Z,0.00
2023-04-29T01:42:34.719Z,0.00
2023-04-29T01:43:31.921Z,0.00
2023-04-29T01:44:31.886Z,0.00
2023-04-29T01:45:31.877Z,0.00
2023-04-29T01:46:31.911Z,0.00
2023-04-29T01:47:31.955Z,0.00
2023-04-29T01:48:31.871Z,0.00
2023-04-29T01:49:31.860Z,0.00
2023-04-29T01:50:31.850Z,0.00
2023-04-29T01:51:33.834Z,0.00
2023-04-29T01:52:31.920Z,0.00
2023-04-29T01:53:31.848Z,0.00
2023-04-29T01:54:31.881Z,0.00
2023-04-29T01:55:31.807Z,0.00
2023-04-29T01:56:31.798Z,0.00
2023-04-29T01:57:31.783Z,0.00
2023-04-29T01:58:31.811Z,0.00
2023-04-29T01:59:31.897Z,0.00
2023-04-29T02:00:31.805Z,0.00
2023-04-29T02:01:31.780Z,0.00
2023-04-29T02:02:31.875Z,0.00
2023-04-29T02:03:31.957Z,0.00
2023-04-29T02:04:31.788Z,0.00
2023-04-29T02:05:31.728Z,0.00
2023-04-29T02:06:31.735Z,0.00
2023-04-29T02:07:31.706Z,0.00
2023-04-29T02:08:31.699Z,0.00
2023-04-29T02:09:31.700Z,0.00
2023-04-29T02:10:33.340Z,0.00
2023-04-29T02:11:31.716Z,0.00
2023-04-29T02:12:31.664Z,0.00
2023-04-29T02:13:31.673Z,0.00
2023-04-29T02:14:31.690Z,0.00
2023-04-29T02:15:31.662Z,0.00
2023-04-29T02:16:31.668Z,0.00
2023-04-29T02:17:31.663Z,0.00
2023-04-29T02:18:31.642Z,0.00
2023-04-29T02:19:31.647Z,0.00
2023-04-29T02:20:31.612Z,0.00
2023-04-29T02:21:31.605Z,0.00
2023-04-29T02:22:31.605Z,0.00
2023-04-29T02:23:31.589Z,0.00
2023-04-29T02:24:31.585Z,0.00
2023-04-29T02:25:31.594Z,0.00
2023-04-29T02:26:31.579Z,0.00
2023-04-29T02:27:31.563Z,0.00
2023-04-29T02:28:31.545Z,0.00
2023-04-29T02:29:31.543Z,0.00
2023-04-29T02:30:31.534Z,0.00
2023-04-29T02:31:31.628Z,0.00
2023-04-29T02:32:31.554Z,0.00
2023-04-29T02:33:31.522Z,0.00
2023-04-29T02:34:31.507Z,0.00
2023-04-29T02:35:31.495Z,0.00
2023-04-29T02:36:31.487Z,0.00
2023-04-29T02:37:31.484Z,0.00
2023-04-29T02:38:31.487Z,0.00
2023-04-29T02:39:31.501Z,0.00
2023-04-29T02:40:31.487Z,0.00
2023-04-29T02:41:31.445Z,0.00
2023-04-29T02:42:31.488Z,0.00
2023-04-29T02:43:31.457Z,0.00
2023-04-29T02:44:31.427Z,0.00
2023-04-29T02:45:31.421Z,0.00
2023-04-29T02:46:31.425Z,0.00
2023-04-29T02:47:31.506Z,0.00
2023-04-29T02:48:33.329Z,0.00
2023-04-29T02:49:31.392Z,0.00
2023-04-29T02:50:31.371Z,0.00
2023-04-29T02:51:31.382Z,0.00
2023-04-29T02:52:31.374Z,0.00
2023-04-29T02:53:31.362Z,0.00
2023-04-29T02:54:31.346Z,0.00
2023-04-29T02:55:31.333Z,0.00
2023-04-29T02:56:31.333Z,0.00
2023-04-29T02:57:32.315Z,0.00
2023-04-29T02:58:31.302Z,0.00
2023-04-29T02:59:31.314Z,0.00
2023-04-29T03:00:31.292Z,0.00
2023-04-29T03:01:31.337Z,0.00
2023-04-29T03:02:31.372Z,0.00
2023-04-29T03:03:31.354Z,0.00
2023-04-29T03:04:31.293Z,0.00
2023-04-29T03:05:31.400Z,0.00
2023-04-29T03:06:31.256Z,0.00
2023-04-29T03:07:31.245Z,0.00
2023-04-29T03:08:31.234Z,0.00
2023-04-29T03:09:31.275Z,0.00
2023-04-29T03:10:31.265Z,0.00
2023-04-29T03:11:31.207Z,0.00
2023-04-29T03:12:31.201Z,0.00
2023-04-29T03:13:31.187Z,0.00
2023-04-29T03:14:32.854Z,0.00
2023-04-29T03:15:31.201Z,0.00
2023-04-29T03:16:31.224Z,0.00
2023-04-29T03:17:31.202Z,0.00
2023-04-29T03:18:31.202Z,0.00
2023-04-29T03:19:31.145Z,0.00
2023-04-29T03:20:31.132Z,0.00
2023-04-29T03:21:31.142Z,0.00
2023-04-29T03:22:31.119Z,0.00
2023-04-29T03:23:31.101Z,0.00
2023-04-29T03:24:31.121Z,0.00
2023-04-29T03:25:31.106Z,0.00
2023-04-29T03:26:31.097Z,0.00
2023-04-29T03:27:31.072Z,0.00
2023-04-29T03:28:31.071Z,0.00
2023-04-29T03:29:31.061Z,0.00
2023-04-29T03:30:31.796Z,0.00
2023-04-29T03:31:31.063Z,0.00
2023-04-29T03:32:31.085Z,0.00
2023-04-29T03:33:31.028Z,0.00
2023-04-29T03:34:31.015Z,0.00
2023-04-29T03:35:31.020Z,0.00
2023-04-29T03:36:31.031Z,0.00
2023-04-29T03:37:31.009Z,0.00
2023-04-29T03:38:30.992Z,0.00
2023-04-29T03:39:30.979Z,0.00
2023-04-29T03:40:30.970Z,4.00
2023-04-29T03:41:30.957Z,4.00
2023-04-29T03:42:30.969Z,8.00
2023-04-29T03:43:30.949Z,8.00
2023-04-29T03:44:30.957Z,8.00
2023-04-29T03:45:32.852Z,12.00
2023-04-29T03:46:31.009Z,16.00
2023-04-29T03:47:30.955Z,16.00
2023-04-29T03:48:30.911Z,20.00
2023-04-29T03:49:30.894Z,20.00
2023-04-29T03:50:30.900Z,24.00
2023-04-29T03:51:30.924Z,24.00
2023-04-29T03:52:30.913Z,28.00
2023-04-29T03:53:30.883Z,36.00
2023-04-29T03:54:30.868Z,40.00
2023-04-29T03:55:30.865Z,44.00
2023-04-29T03:56:30.850Z,48.00
2023-04-29T03:57:30.827Z,52.00
2023-04-29T03:58:30.833Z,60.00
2023-04-29T03:59:30.838Z,68.00
2023-04-29T04:00:30.826Z,72.00
2023-04-29T04:01:30.802Z,76.00
2023-04-29T04:02:30.932Z,80.00
2023-04-29T04:03:30.871Z,84.00
2023-04-29T04:04:30.926Z,88.00
2023-04-29T04:05:30.778Z,92.00
2023-04-29T04:06:30.757Z,96.00
2023-04-29T04:07:30.758Z,108.00
2023-04-29T04:08:30.741Z,120.00
2023-04-29T04:09:30.734Z,128.00
2023-04-29T04:10:30.746Z,140.00
2023-04-29T04:11:30.709Z,152.00
2023-04-29T04:12:30.716Z,172.00
2023-04-29T04:13:30.709Z,188.00
2023-04-29T04:14:30.700Z,196.00
2023-04-29T04:15:30.695Z,212.00
2023-04-29T04:16:30.725Z,220.00
2023-04-29T04:17:30.670Z,220.00
2023-04-29T04:18:30.657Z,216.00
2023-04-29T04:19:31.662Z,212.00
2023-04-29T04:20:30.634Z,204.00
2023-04-29T04:21:30.676Z,204.00
2023-04-29T04:22:30.624Z,200.00
2023-04-29T04:23:30.625Z,200.00
2023-04-29T04:24:30.617Z,204.00
2023-04-29T04:25:30.619Z,244.00
2023-04-29T04:26:30.625Z,284.00
2023-04-29T04:27:30.581Z,360.00
2023-04-29T04:28:30.599Z,440.00
2023-04-29T04:29:30.655Z,520.00
2023-04-29T04:30:30.563Z,632.00
2023-04-29T04:31:30.603Z,808.00
2023-04-29T04:32:31.316Z,996.00
2023-04-29T04:33:30.573Z,1080.00
2023-04-29T04:34:30.519Z,1072.00
2023-04-29T04:35:30.557Z,1012.00
2023-04-29T04:36:30.515Z,968.00
2023-04-29T04:37:30.519Z,1100.00
2023-04-29T04:38:30.520Z,1340.00
2023-04-29T04:39:30.502Z,1496.00
2023-04-29T04:40:30.489Z,1508.00
2023-04-29T04:41:30.509Z,1480.00
2023-04-29T04:42:30.474Z,1520.00
2023-04-29T04:43:30.459Z,1580.00
2023-04-29T04:44:30.471Z,1692.00
2023-04-29T04:45:30.475Z,1476.00
2023-04-29T04:46:30.444Z,1264.00
2023-04-29T04:47:30.461Z,1272.00
2023-04-29T04:48:30.449Z,1216.00
2023-04-29T04:49:30.445Z,1156.00
2023-04-29T04:50:31.376Z,1116.00
2023-04-29T04:51:30.421Z,1132.00
2023-04-29T04:52:30.394Z,1124.00
2023-04-29T04:53:30.371Z,1064.00
2023-04-29T04:54:30.384Z,1088.00
2023-04-29T04:55:31.379Z,1100.00
2023-04-29T04:56:30.356Z,1104.00
2023-04-29T04:57:30.392Z,1220.00
2023-04-29T04:58:30.345Z,1288.00
2023-04-29T04:59:30.331Z,1208.00
2023-04-29T05:00:30.371Z,1292.00
2023-04-29T05:01:30.380Z,1396.00
2023-04-29T05:02:30.422Z,1572.00
2023-04-29T05:03:30.561Z,1524.00
2023-04-29T05:04:30.374Z,1508.00
2023-04-29T05:05:30.279Z,1540.00
2023-04-29T05:06:30.273Z,1700.00
2023-04-29T05:07:30.286Z,1720.00
2023-04-29T05:08:30.264Z,1636.00
2023-04-29T05:09:30.271Z,1508.00
2023-04-29T05:10:30.244Z,1376.00
2023-04-29T05:11:30.246Z,1336.00
2023-04-29T05:12:30.234Z,1328.00
2023-04-29T05:13:30.219Z,1432.00
2023-04-29T05:14:30.228Z,1524.00
2023-04-29T05:15:30.212Z,1468.00
2023-04-29T05:16:30.279Z,1500.00
2023-04-29T05:17:30.238Z,1552.00
2023-04-29T05:18:30.203Z,1524.00
2023-04-29T05:19:30.181Z,1416.00
2023-04-29T05:20:30.797Z,1324.00
2023-04-29T05:21:30.176Z,1228.00
2023-04-29T05:22:30.149Z,1224.00
2023-04-29T05:23:30.179Z,1196.00
2023-04-29T05:24:31.864Z,1232.00
2023-04-29T05:25:31.139Z,1256.00
2023-04-29T05:26:30.121Z,1256.00
2023-04-29T05:27:30.109Z,1276.00
2023-04-29T05:28:30.180Z,1264.00
2023-04-29T05:29:30.119Z,1240.00
2023-04-29T05:30:30.106Z,1268.00
2023-04-29T05:31:30.134Z,1308.00
2023-04-29T05:32:30.116Z,1324.00
2023-04-29T05:33:30.117Z,1384.00
2023-04-29T05:34:30.075Z,1388.00
2023-04-29T05:35:30.799Z,1408.00
2023-04-29T05:36:30.111Z,1424.00
2023-04-29T05:37:30.060Z,1460.00
2023-04-29T05:38:30.021Z,1548.00
2023-04-29T05:39:30.020Z,1680.00
2023-04-29T05:40:30.004Z,1816.00
2023-04-29T05:41:30.017Z,1928.00
2023-04-29T05:42:30.000Z,2064.00
2023-04-29T05:43:29.976Z,2144.00
2023-04-29T05:44:29.978Z,2200.00
2023-04-29T05:45:29.965Z,2188.00
2023-04-29T05:46:30.426Z,2108.00
2023-04-29T05:47:30.120Z,2084.00
2023-04-29T05:48:29.981Z,2052.00
2023-04-29T05:49:31.944Z,2012.00
2023-04-29T05:50:29.939Z,1968.00
2023-04-29T05:51:30.005Z,1936.00
2023-04-29T05:52:29.898Z,1876.00
2023-04-29T05:53:30.913Z,1756.00
2023-04-29T05:54:29.945Z,1732.00
2023-04-29T05:55:29.893Z,1760.00
2023-04-29T05:56:29.871Z,1732.00
2023-04-29T05:57:29.859Z,1788.00
2023-04-29T05:58:31.401Z,1780.00
2023-04-29T05:59:29.846Z,1876.00
2023-04-29T06:00:29.860Z,2016.00
2023-04-29T06:01:29.832Z,2264.00
2023-04-29T06:02:29.912Z,2476.00
2023-04-29T06:03:32.662Z,2644.00
2023-04-29T06:04:31.999Z,2864.00
2023-04-29T06:05:31.774Z,3136.00
2023-04-29T06:06:30.988Z,3508.00
2023-04-29T06:07:29.844Z,3616.00
2023-04-29T06:08:29.823Z,3468.00
2023-04-29T06:09:29.812Z,3376.00
2023-04-29T06:10:29.798Z,3368.00
2023-04-29T06:11:29.763Z,3440.00
2023-04-29T06:12:29.760Z,3572.00
2023-04-29T06:13:29.729Z,3720.00
2023-04-29T06:14:29.735Z,3752.00
2023-04-29T06:15:29.723Z,3828.00
2023-04-29T06:16:36.362Z,3888.00
2023-04-29T06:17:29.777Z,4008.00
2023-04-29T06:18:29.699Z,4168.00
2023-04-29T06:19:30.434Z,4296.00
2023-04-29T06:20:29.685Z,4332.00
2023-04-29T06:21:29.680Z,4260.00
2023-04-29T06:22:29.675Z,4032.00
2023-04-29T06:23:29.666Z,3756.00
2023-04-29T06:24:29.641Z,3512.00
2023-04-29T06:25:29.648Z,3176.00
2023-04-29T06:26:29.628Z,3008.00
2023-04-29T06:27:29.612Z,2984.00
2023-04-29T06:28:29.611Z,2980.00
2023-04-29T06:29:29.604Z,2944.00
2023-04-29T06:30:29.593Z,2980.00
2023-04-29T06:31:29.638Z,3016.00
2023-04-29T06:32:29.636Z,3036.00
2023-04-29T06:33:29.601Z,3060.00
2023-04-29T06:34:29.558Z,3000.00
2023-04-29T06:35:29.563Z,2932.00
2023-04-29T06:36:29.545Z,2972.00
2023-04-29T06:37:29.562Z,2776.00
2023-04-29T06:38:29.526Z,2520.00
2023-04-29T06:39:29.523Z,2184.00
2023-04-29T06:40:29.542Z,1840.00
2023-04-29T06:41:29.515Z,1928.00
2023-04-29T06:42:29.498Z,2124.00
2023-04-29T06:43:29.506Z,2324.00
2023-04-29T06:44:29.491Z,2436.00
2023-04-29T06:45:29.486Z,2368.00
2023-04-29T06:46:29.538Z,2276.00
2023-04-29T06:47:29.484Z,2232.00
2023-04-29T06:48:29.438Z,2244.00
2023-04-29T06:49:29.441Z,2260.00
2023-04-29T06:50:29.431Z,2288.00
2023-04-29T06:51:29.424Z,2336.00
2023-04-29T06:52:29.416Z,2420.00
2023-04-29T06:53:29.402Z,2528.00
2023-04-29T06:54:29.413Z,2652.00
2023-04-29T06:55:29.411Z,2752.00
2023-04-29T06:56:29.964Z,2868.00
2023-04-29T06:57:29.368Z,3020.00
2023-04-29T06:58:30.361Z,3216.00
2023-04-29T06:59:29.377Z,3448.00
2023-04-29T07:00:29.356Z,3712.00
2023-04-29T07:01:29.394Z,3988.00
2023-04-29T07:02:29.473Z,4248.00
2023-04-29T07:03:29.608Z,4392.00
2023-04-29T07:04:29.429Z,4528.00
2023-04-29T07:05:29.321Z,4540.00
2023-04-29T07:06:29.301Z,4508.00
2023-04-29T07:07:29.294Z,4504.00
2023-04-29T07:08:29.294Z,4444.00
2023-04-29T07:09:29.285Z,4512.00
2023-04-29T07:10:29.308Z,4640.00
2023-04-29T07:11:30.884Z,4648.00
2023-04-29T07:12:29.249Z,4432.00
2023-04-29T07:13:29.238Z,4424.00
2023-04-29T07:14:29.270Z,4164.00
2023-04-29T07:15:29.241Z,3848.00
2023-04-29T07:16:29.270Z,3560.00
2023-04-29T07:17:29.270Z,3372.00
2023-04-29T07:18:29.206Z,3360.00
2023-04-29T07:19:29.452Z,3352.00
2023-04-29T07:20:29.201Z,3460.00
2023-04-29T07:21:29.179Z,3624.00
2023-04-29T07:22:29.184Z,3772.00
2023-04-29T07:23:29.165Z,3916.00
2023-04-29T07:24:29.153Z,3972.00
2023-04-29T07:25:29.177Z,3840.00
2023-04-29T07:26:29.152Z,3872.00
2023-04-29T07:27:29.157Z,4076.00
2023-04-29T07:28:29.116Z,4104.00
2023-04-29T07:29:29.115Z,3908.00
2023-04-29T07:30:29.113Z,3760.00
2023-04-29T07:31:29.167Z,3620.00
2023-04-29T07:32:29.121Z,3352.00
2023-04-29T07:33:29.089Z,3008.00
2023-04-29T07:34:29.086Z,2856.00
2023-04-29T07:35:29.064Z,2840.00
2023-04-29T07:36:29.073Z,2832.00
2023-04-29T07:37:29.039Z,2748.00
2023-04-29T07:38:29.038Z,2528.00
2023-04-29T07:39:29.028Z,2320.00
2023-04-29T07:40:29.016Z,2136.00
2023-04-29T07:41:29.015Z,2024.00
2023-04-29T07:42:29.003Z,1960.00
2023-04-29T07:43:29.033Z,1908.00
2023-04-29T07:44:28.980Z,2124.00
2023-04-29T07:45:29.014Z,2284.00
2023-04-29T07:46:28.995Z,2436.00
2023-04-29T07:47:28.983Z,2692.00
2023-04-29T07:48:29.060Z,2900.00
2023-04-29T07:49:29.956Z,2960.00
2023-04-29T07:50:29.376Z,2740.00
2023-04-29T07:51:29.124Z,2456.00
2023-04-29T07:52:29.017Z,2308.00
2023-04-29T07:53:28.998Z,2144.00
2023-04-29T07:54:28.983Z,1988.00
2023-04-29T07:55:28.906Z,1872.00
2023-04-29T07:56:28.895Z,1860.00
2023-04-29T07:57:28.883Z,2036.00
2023-04-29T07:58:28.864Z,2192.00
2023-04-29T07:59:28.897Z,2304.00
2023-04-29T08:00:28.861Z,2376.00
2023-04-29T08:01:28.861Z,2296.00
2023-04-29T08:02:28.992Z,2360.00
2023-04-29T08:03:28.936Z,2392.00
2023-04-29T08:04:29.020Z,2480.00
2023-04-29T08:05:29.085Z,2824.00
2023-04-29T08:06:29.836Z,3032.00
2023-04-29T08:07:28.802Z,3164.00
2023-04-29T08:08:28.786Z,3224.00
2023-04-29T08:09:28.786Z,3172.00
2023-04-29T08:10:28.771Z,2952.00
2023-04-29T08:11:28.762Z,2792.00
2023-04-29T08:12:28.753Z,2728.00
2023-04-29T08:13:28.760Z,2796.00
2023-04-29T08:14:28.743Z,2992.00
2023-04-29T08:15:28.744Z,3316.00
2023-04-29T08:16:28.763Z,4024.00
2023-04-29T08:17:28.728Z,4036.00
2023-04-29T08:18:28.705Z,3824.00
2023-04-29T08:19:28.690Z,3928.00
2023-04-29T08:20:28.702Z,3968.00
2023-04-29T08:21:28.678Z,3928.00
2023-04-29T08:22:28.680Z,3832.00
2023-04-29T08:23:28.679Z,3964.00
2023-04-29T08:24:28.655Z,4056.00
2023-04-29T08:25:28.657Z,4156.00
2023-04-29T08:26:28.654Z,4044.00
2023-04-29T08:27:28.776Z,3852.00
2023-04-29T08:28:28.625Z,3804.00
2023-04-29T08:29:28.684Z,4128.00
2023-04-29T08:30:28.622Z,3988.00
2023-04-29T08:31:28.665Z,3796.00
2023-04-29T08:32:28.642Z,3728.00
2023-04-29T08:33:28.575Z,3624.00
2023-04-29T08:34:28.571Z,3452.00
2023-04-29T08:35:28.581Z,3324.00
2023-04-29T08:36:28.558Z,3340.00
2023-04-29T08:37:28.542Z,3556.00
2023-04-29T08:38:28.540Z,3844.00
2023-04-29T08:39:28.544Z,4012.00
2023-04-29T08:40:28.534Z,4096.00
2023-04-29T08:41:28.509Z,4348.00
2023-04-29T08:42:28.508Z,4344.00
2023-04-29T08:43:28.497Z,4236.00
2023-04-29T08:44:28.513Z,4360.00
2023-04-29T08:45:28.551Z,4456.00
2023-04-29T08:46:28.583Z,4660.00
2023-04-29T08:47:28.558Z,4848.00
2023-04-29T08:48:28.520Z,5068.00
2023-04-29T08:49:28.458Z,5436.00
2023-04-29T08:50:28.437Z,5976.00
2023-04-29T08:51:28.440Z,6592.00
2023-04-29T08:52:28.423Z,7184.00
2023-04-29T08:53:28.413Z,7632.00
2023-04-29T08:54:28.750Z,7552.00
2023-04-29T08:55:28.417Z,7108.00
2023-04-29T08:56:28.409Z,6812.00
2023-04-29T08:57:28.403Z,5972.00
2023-04-29T08:58:28.373Z,5924.00
2023-04-29T08:59:28.356Z,6488.00
2023-04-29T09:00:30.012Z,6580.00
2023-04-29T09:01:28.410Z,6728.00
2023-04-29T09:02:28.441Z,7164.00
2023-04-29T09:03:28.376Z,7476.00
2023-04-29T09:04:28.356Z,7924.00
2023-04-29T09:05:28.315Z,8060.00
2023-04-29T09:06:28.308Z,7340.00
2023-04-29T09:07:28.313Z,6428.00
2023-04-29T09:08:28.328Z,5680.00
2023-04-29T09:09:29.284Z,5624.00
2023-04-29T09:10:28.965Z,6080.00
2023-04-29T09:11:28.271Z,7960.00
2023-04-29T09:12:28.268Z,10124.00
2023-04-29T09:13:28.254Z,11920.00
2023-04-29T09:14:28.246Z,12600.00
2023-04-29T09:15:28.238Z,12196.00
2023-04-29T09:16:28.292Z,11444.00
2023-04-29T09:17:28.259Z,11096.00
2023-04-29T09:18:28.205Z,11364.00
2023-04-29T09:19:28.224Z,12324.00
2023-04-29T09:20:28.196Z,13368.00
2023-04-29T09:21:28.197Z,14396.00
2023-04-29T09:22:28.217Z,14836.00
2023-04-29T09:23:28.170Z,14848.00
2023-04-29T09:24:28.173Z,14772.00
2023-04-29T09:25:28.172Z,14452.00
2023-04-29T09:26:28.150Z,14036.00
2023-04-29T09:27:28.142Z,13816.00
2023-04-29T09:28:28.129Z,13756.00
2023-04-29T09:29:28.949Z,13720.00
2023-04-29T09:30:28.129Z,13944.00
2023-04-29T09:31:28.184Z,14088.00
2023-04-29T09:32:28.157Z,14036.00
2023-04-29T09:33:28.093Z,13932.00
2023-04-29T09:34:28.095Z,13692.00
2023-04-29T09:35:28.111Z,13356.00
2023-04-29T09:36:28.077Z,13244.00
2023-04-29T09:37:28.151Z,13220.00
2023-04-29T09:38:28.046Z,13192.00
2023-04-29T09:39:28.893Z,12856.00
2023-04-29T09:40:28.034Z,12520.00
2023-04-29T09:41:28.031Z,12208.00
2023-04-29T09:42:28.029Z,11896.00
2023-04-29T09:43:28.013Z,11672.00
2023-04-29T09:44:32.967Z,11332.00
2023-04-29T09:45:27.994Z,11112.00
2023-04-29T09:46:28.016Z,10988.00
2023-04-29T09:47:29.523Z,10876.00
2023-04-29T09:48:29.029Z,10732.00
2023-04-29T09:49:27.989Z,10328.00
2023-04-29T09:50:29.514Z,10292.00
2023-04-29T09:51:27.964Z,10256.00
2023-04-29T09:52:29.591Z,10288.00
2023-04-29T09:53:27.939Z,10236.00
2023-04-29T09:54:27.920Z,10036.00
2023-04-29T09:55:27.920Z,9800.00
2023-04-29T09:56:27.903Z,9640.00
2023-04-29T09:57:27.895Z,9544.00
2023-04-29T09:58:27.896Z,9400.00
2023-04-29T09:59:27.894Z,9276.00
2023-04-29T10:00:29.500Z,9216.00
2023-04-29T10:01:27.911Z,9184.00
2023-04-29T10:02:27.988Z,9232.00
2023-04-29T10:03:27.925Z,9340.00
2023-04-29T10:04:27.894Z,9384.00
2023-04-29T10:05:27.836Z,9308.00
2023-04-29T10:06:27.822Z,9248.00
2023-04-29T10:07:27.827Z,9192.00
2023-04-29T10:08:27.810Z,9028.00
2023-04-29T10:09:27.810Z,8852.00
2023-04-29T10:10:29.548Z,8688.00
2023-04-29T10:11:27.787Z,8524.00
2023-04-29T10:12:27.797Z,8340.00
2023-04-29T10:13:29.407Z,8084.00
2023-04-29T10:14:28.763Z,7900.00
2023-04-29T10:15:28.458Z,7752.00
2023-04-29T10:16:27.791Z,7496.00
2023-04-29T10:17:27.731Z,7168.00
2023-04-29T10:18:27.769Z,6876.00
2023-04-29T10:19:27.753Z,6672.00
2023-04-29T10:20:27.718Z,6596.00
2023-04-29T10:21:27.753Z,6588.00
2023-04-29T10:22:28.511Z,6592.00
2023-04-29T10:23:27.697Z,6588.00
2023-04-29T10:24:27.681Z,6636.00
2023-04-29T10:25:27.677Z,6536.00
2023-04-29T10:26:27.670Z,6480.00
2023-04-29T10:27:27.656Z,6464.00
2023-04-29T10:28:27.645Z,6456.00
2023-04-29T10:29:27.661Z,6464.00
2023-04-29T10:30:27.648Z,6524.00
2023-04-29T10:31:27.690Z,6584.00
2023-04-29T10:32:28.845Z,6592.00
2023-04-29T10:33:28.629Z,6520.00
2023-04-29T10:34:27.610Z,6360.00
2023-04-29T10:35:27.594Z,6144.00
2023-04-29T10:36:27.598Z,5872.00
2023-04-29T10:37:27.596Z,5620.00
2023-04-29T10:38:27.583Z,5412.00
2023-04-29T10:39:27.551Z,5212.00
2023-04-29T10:40:28.531Z,5008.00
2023-04-29T10:41:27.568Z,4804.00
2023-04-29T10:42:28.107Z,4712.00
2023-04-29T10:43:27.537Z,4632.00
2023-04-29T10:44:27.517Z,4592.00
2023-04-29T10:45:27.591Z,4604.00
2023-04-29T10:46:27.579Z,4628.00
2023-04-29T10:47:27.529Z,4664.00
2023-04-29T10:48:27.502Z,4664.00
2023-04-29T10:49:27.512Z,4612.00
2023-04-29T10:50:27.478Z,4508.00
2023-04-29T10:51:27.480Z,4300.00
2023-04-29T10:52:27.457Z,3984.00
2023-04-29T10:53:27.448Z,3732.00
2023-04-29T10:54:27.451Z,3696.00
2023-04-29T10:55:27.437Z,3672.00
2023-04-29T10:56:27.436Z,3576.00
2023-04-29T10:57:27.421Z,3452.00
2023-04-29T10:58:27.441Z,3324.00
2023-04-29T10:59:27.418Z,3424.00
2023-04-29T11:00:28.036Z,3536.00
2023-04-29T11:01:27.418Z,3580.00
2023-04-29T11:02:27.614Z,3572.00
2023-04-29T11:03:27.513Z,3532.00
2023-04-29T11:04:27.425Z,3572.00
2023-04-29T11:05:27.861Z,3592.00
2023-04-29T11:06:28.351Z,3616.00
2023-04-29T11:07:27.341Z,3628.00
2023-04-29T11:08:27.610Z,3668.00
2023-04-29T11:09:27.352Z,3776.00
2023-04-29T11:10:27.324Z,3976.00
2023-04-29T11:11:28.385Z,4232.00
2023-04-29T11:12:28.329Z,4524.00
2023-04-29T11:13:27.318Z,4820.00
2023-04-29T11:14:29.052Z,5112.00
2023-04-29T11:15:27.287Z,5368.00
2023-04-29T11:16:27.347Z,5676.00
2023-04-29T11:17:28.507Z,5936.00
2023-04-29T11:18:28.250Z,6156.00
2023-04-29T11:19:27.250Z,6348.00
2023-04-29T11:20:27.245Z,6440.00
2023-04-29T11:21:27.236Z,6408.00
2023-04-29T11:22:27.288Z,6284.00
2023-04-29T11:23:28.506Z,6084.00
2023-04-29T11:24:28.224Z,5824.00
2023-04-29T11:25:27.218Z,5680.00
2023-04-29T11:26:27.198Z,5520.00
2023-04-29T11:27:27.439Z,5252.00
2023-04-29T11:28:27.178Z,4952.00
2023-04-29T11:29:27.970Z,4728.00
2023-04-29T11:30:27.165Z,4524.00
2023-04-29T11:31:28.782Z,4408.00
2023-04-29T11:32:27.247Z,4320.00
2023-04-29T11:33:27.200Z,4208.00
2023-04-29T11:34:27.168Z,4040.00
2023-04-29T11:35:27.121Z,3844.00
2023-04-29T11:36:27.125Z,3656.00
2023-04-29T11:37:27.140Z,3540.00
2023-04-29T11:38:27.106Z,3436.00
2023-04-29T11:39:27.100Z,3268.00
2023-04-29T11:40:27.079Z,3092.00
2023-04-29T11:41:27.452Z,2940.00
2023-04-29T11:42:27.079Z,2792.00
2023-04-29T11:43:27.079Z,2696.00
2023-04-29T11:44:27.056Z,2616.00
2023-04-29T11:45:27.057Z,2556.00
2023-04-29T11:46:27.055Z,2520.00
2023-04-29T11:47:28.126Z,2480.00
2023-04-29T11:48:27.014Z,2452.00
2023-04-29T11:49:27.001Z,2404.00
2023-04-29T11:50:27.053Z,2352.00
2023-04-29T11:51:27.002Z,2296.00
2023-04-29T11:52:26.971Z,2224.00
2023-04-29T11:53:28.053Z,2136.00
2023-04-29T11:54:26.978Z,2064.00
2023-04-29T11:55:26.956Z,2092.00
2023-04-29T11:56:26.970Z,2172.00
2023-04-29T11:57:27.426Z,2356.00
2023-04-29T11:58:26.942Z,2380.00
2023-04-29T11:59:26.926Z,2420.00
2023-04-29T12:00:26.925Z,2448.00
2023-04-29T12:01:27.066Z,2424.00
2023-04-29T12:02:26.977Z,2552.00
2023-04-29T12:03:27.124Z,2840.00
2023-04-29T12:04:27.186Z,3280.00
2023-04-29T12:05:26.990Z,3692.00
2023-04-29T12:06:26.936Z,3968.00
2023-04-29T12:07:26.853Z,4184.00
2023-04-29T12:08:27.554Z,4320.00
2023-04-29T12:09:26.873Z,4340.00
2023-04-29T12:10:26.836Z,4332.00
2023-04-29T12:11:26.857Z,4364.00
2023-04-29T12:12:26.816Z,4512.00
2023-04-29T12:13:27.458Z,4708.00
2023-04-29T12:14:26.829Z,4896.00
2023-04-29T12:15:26.809Z,5072.00
2023-04-29T12:16:27.021Z,5168.00
2023-04-29T12:17:26.796Z,5260.00
2023-04-29T12:18:26.770Z,5400.00
2023-04-29T12:19:26.772Z,5556.00
2023-04-29T12:20:26.771Z,5712.00
2023-04-29T12:21:26.753Z,5908.00
2023-04-29T12:22:27.538Z,6172.00
2023-04-29T12:23:26.756Z,6548.00
2023-04-29T12:24:26.733Z,6992.00
2023-04-29T12:25:26.722Z,7408.00
2023-04-29T12:26:26.713Z,7712.00
2023-04-29T12:27:26.694Z,8008.00
2023-04-29T12:28:26.697Z,8300.00